sensor_id;sensor_type;location;lat;lon;timestamp;P1;durP1;ratioP1;P2;durP2;ratioP2
6372;SDS011;3219;51.362;7.074;2022-09-09T00:01:08;3.53;;;1.00;;
6372;SDS011;3219;51.362;7.074;2022-09-09T00:03:40;2.42;;;0.80;;
6372;SDS011;3219;51.362;7.074;2022-09-09T00:06:13;1.63;;;0.77;;
6372;SDS011;3219;51.362;7.074;2022-09-09T00:08:45;3.03;;;0.75;;
6372;SDS011;3219;51.362;7.074;2022-09-09T00:11:16;1.75;;;1.10;;
6372;SDS011;3219;51.362;7.074;2022-09-09T00:13:48;3.65;;;0.80;;
6372;SDS011;3219;51.362;7.074;2022-09-09T00:16:19;2.90;;;1.00;;
6372;SDS011;3219;51.362;7.074;2022-09-09T00:18:51;3.38;;;1.65;;
6372;SDS011;3219;51.362;7.074;2022-09-09T00:21:20;2.78;;;1.00;;
6372;SDS011;3219;51.362;7.074;2022-09-09T00:23:50;2.50;;;0.93;;
6372;SDS011;3219;51.362;7.074;2022-09-09T00:26:20;1.83;;;0.93;;
6372;SDS011;3219;51.362;7.074;2022-09-09T00:28:50;2.22;;;0.90;;
6372;SDS011;3219;51.362;7.074;2022-09-09T00:31:21;2.72;;;0.98;;
6372;SDS011;3219;51.362;7.074;2022-09-09T00:33:49;4.68;;;0.98;;
6372;SDS011;3219;51.362;7.074;2022-09-09T00:36:18;4.78;;;1.30;;
6372;SDS011;3219;51.362;7.074;2022-09-09T00:38:47;7.43;;;1.10;;
6372;SDS011;3219;51.362;7.074;2022-09-09T00:41:18;2.35;;;1.30;;
6372;SDS011;3219;51.362;7.074;2022-09-09T00:43:49;2.72;;;1.13;;
6372;SDS011;3219;51.362;7.074;2022-09-09T00:46:25;2.60;;;1.25;;
6372;SDS011;3219;51.362;7.074;2022-09-09T00:48:55;2.63;;;1.00;;
6372;SDS011;3219;51.362;7.074;2022-09-09T00:51:25;2.80;;;1.15;;
6372;SDS011;3219;51.362;7.074;2022-09-09T00:54:04;2.13;;;1.02;;
6372;SDS011;3219;51.362;7.074;2022-09-09T00:56:34;4.40;;;1.25;;
6372;SDS011;3219;51.362;7.074;2022-09-09T00:59:08;4.43;;;1.10;;
6372;SDS011;3219;51.362;7.074;2022-09-09T01:01:39;2.63;;;1.42;;
6372;SDS011;3219;51.362;7.074;2022-09-09T01:04:07;4.05;;;1.20;;
6372;SDS011;3219;51.362;7.074;2022-09-09T01:06:37;3.50;;;1.30;;
6372;SDS011;3219;51.362;7.074;2022-09-09T01:09:08;3.88;;;1.45;;
6372;SDS011;3219;51.362;7.074;2022-09-09T01:11:40;3.78;;;1.38;;
6372;SDS011;3219;51.362;7.074;2022-09-09T01:14:13;6.20;;;1.92;;
6372;SDS011;3219;51.362;7.074;2022-09-09T01:16:42;2.58;;;1.70;;
6372;SDS011;3219;51.362;7.074;2022-09-09T01:19:10;4.88;;;1.83;;
6372;SDS011;3219;51.362;7.074;2022-09-09T01:21:41;3.95;;;2.05;;
6372;SDS011;3219;51.362;7.074;2022-09-09T01:24:16;5.05;;;1.92;;
6372;SDS011;3219;51.362;7.074;2022-09-09T01:26:46;4.65;;;2.00;;
6372;SDS011;3219;51.362;7.074;2022-09-09T01:29:16;4.60;;;1.98;;
6372;SDS011;3219;51.362;7.074;2022-09-09T01:31:51;6.50;;;2.72;;
6372;SDS011;3219;51.362;7.074;2022-09-09T01:34:19;4.88;;;1.85;;
6372;SDS011;3219;51.362;7.074;2022-09-09T01:36:47;7.47;;;2.60;;
6372;SDS011;3219;51.362;7.074;2022-09-09T01:39:16;6.18;;;2.45;;
6372;SDS011;3219;51.362;7.074;2022-09-09T01:41:43;5.47;;;2.00;;
6372;SDS011;3219;51.362;7.074;2022-09-09T01:44:12;6.57;;;2.20;;
6372;SDS011;3219;51.362;7.074;2022-09-09T01:46:39;5.97;;;2.53;;
6372;SDS011;3219;51.362;7.074;2022-09-09T01:49:06;6.63;;;2.03;;
6372;SDS011;3219;51.362;7.074;2022-09-09T01:51:34;3.50;;;2.20;;
6372;SDS011;3219;51.362;7.074;2022-09-09T01:54:01;6.20;;;1.98;;
6372;SDS011;3219;51.362;7.074;2022-09-09T01:56:33;4.30;;;2.05;;
6372;SDS011;3219;51.362;7.074;2022-09-09T01:59:05;7.05;;;2.58;;
6372;SDS011;3219;51.362;7.074;2022-09-09T02:01:39;3.72;;;1.95;;
6372;SDS011;3219;51.362;7.074;2022-09-09T02:04:12;5.97;;;2.50;;
6372;SDS011;3219;51.362;7.074;2022-09-09T02:06:43;4.82;;;1.63;;
6372;SDS011;3219;51.362;7.074;2022-09-09T02:09:12;5.35;;;2.03;;
6372;SDS011;3219;51.362;7.074;2022-09-09T02:11:39;4.18;;;2.00;;
6372;SDS011;3219;51.362;7.074;2022-09-09T02:14:08;6.03;;;1.95;;
6372;SDS011;3219;51.362;7.074;2022-09-09T02:16:39;9.93;;;2.33;;
6372;SDS011;3219;51.362;7.074;2022-09-09T02:19:08;4.68;;;2.03;;
6372;SDS011;3219;51.362;7.074;2022-09-09T02:21:38;6.13;;;2.50;;
6372;SDS011;3219;51.362;7.074;2022-09-09T02:24:06;4.32;;;2.10;;
6372;SDS011;3219;51.362;7.074;2022-09-09T02:26:35;6.20;;;2.42;;
6372;SDS011;3219;51.362;7.074;2022-09-09T02:29:04;5.65;;;2.33;;
6372;SDS011;3219;51.362;7.074;2022-09-09T02:31:33;9.13;;;2.33;;
6372;SDS011;3219;51.362;7.074;2022-09-09T02:34:03;7.13;;;2.50;;
6372;SDS011;3219;51.362;7.074;2022-09-09T02:36:31;8.88;;;3.17;;
6372;SDS011;3219;51.362;7.074;2022-09-09T02:39:00;6.70;;;2.78;;
6372;SDS011;3219;51.362;7.074;2022-09-09T02:41:28;5.15;;;2.30;;
6372;SDS011;3219;51.362;7.074;2022-09-09T02:43:57;3.28;;;1.45;;
6372;SDS011;3219;51.362;7.074;2022-09-09T02:46:27;7.47;;;2.17;;
6372;SDS011;3219;51.362;7.074;2022-09-09T02:48:59;9.82;;;1.95;;
6372;SDS011;3219;51.362;7.074;2022-09-09T02:51:30;6.00;;;2.10;;
6372;SDS011;3219;51.362;7.074;2022-09-09T02:54:04;2.70;;;1.52;;
6372;SDS011;3219;51.362;7.074;2022-09-09T02:56:33;3.60;;;1.67;;
6372;SDS011;3219;51.362;7.074;2022-09-09T02:59:04;6.07;;;1.98;;
6372;SDS011;3219;51.362;7.074;2022-09-09T03:01:31;3.72;;;1.50;;
6372;SDS011;3219;51.362;7.074;2022-09-09T03:04:00;5.40;;;1.60;;
6372;SDS011;3219;51.362;7.074;2022-09-09T03:06:29;5.43;;;1.70;;
6372;SDS011;3219;51.362;7.074;2022-09-09T03:08:56;3.83;;;1.52;;
6372;SDS011;3219;51.362;7.074;2022-09-09T03:11:25;7.97;;;1.65;;
6372;SDS011;3219;51.362;7.074;2022-09-09T03:13:53;3.88;;;2.00;;
6372;SDS011;3219;51.362;7.074;2022-09-09T03:16:21;3.83;;;1.20;;
6372;SDS011;3219;51.362;7.074;2022-09-09T03:18:48;5.00;;;1.42;;
6372;SDS011;3219;51.362;7.074;2022-09-09T03:21:15;5.13;;;1.52;;
6372;SDS011;3219;51.362;7.074;2022-09-09T03:23:44;3.53;;;1.50;;
6372;SDS011;3219;51.362;7.074;2022-09-09T03:26:11;3.78;;;1.60;;
6372;SDS011;3219;51.362;7.074;2022-09-09T03:28:40;5.00;;;1.50;;
6372;SDS011;3219;51.362;7.074;2022-09-09T03:31:07;5.82;;;1.70;;
6372;SDS011;3219;51.362;7.074;2022-09-09T03:33:35;4.45;;;1.63;;
6372;SDS011;3219;51.362;7.074;2022-09-09T03:36:02;5.10;;;2.13;;
6372;SDS011;3219;51.362;7.074;2022-09-09T03:38:29;4.97;;;1.90;;
6372;SDS011;3219;51.362;7.074;2022-09-09T03:40:58;5.20;;;2.00;;
6372;SDS011;3219;51.362;7.074;2022-09-09T03:43:26;5.22;;;1.77;;
6372;SDS011;3219;51.362;7.074;2022-09-09T03:45:54;6.18;;;1.70;;
6372;SDS011;3219;51.362;7.074;2022-09-09T03:48:22;7.28;;;1.92;;
6372;SDS011;3219;51.362;7.074;2022-09-09T03:50:50;7.30;;;1.88;;
6372;SDS011;3219;51.362;7.074;2022-09-09T03:53:18;7.47;;;2.00;;
6372;SDS011;3219;51.362;7.074;2022-09-09T03:55:45;7.88;;;2.13;;
6372;SDS011;3219;51.362;7.074;2022-09-09T03:58:14;7.15;;;2.17;;
6372;SDS011;3219;51.362;7.074;2022-09-09T04:00:43;7.35;;;1.80;;
6372;SDS011;3219;51.362;7.074;2022-09-09T04:03:10;8.63;;;2.70;;
6372;SDS011;3219;51.362;7.074;2022-09-09T04:05:38;8.32;;;2.45;;
6372;SDS011;3219;51.362;7.074;2022-09-09T04:08:07;6.75;;;2.03;;
6372;SDS011;3219;51.362;7.074;2022-09-09T04:10:34;7.10;;;2.05;;
6372;SDS011;3219;51.362;7.074;2022-09-09T04:13:02;6.38;;;2.13;;
6372;SDS011;3219;51.362;7.074;2022-09-09T04:15:30;6.28;;;2.42;;
6372;SDS011;3219;51.362;7.074;2022-09-09T04:18:00;9.30;;;2.53;;
6372;SDS011;3219;51.362;7.074;2022-09-09T04:20:27;6.75;;;1.85;;
6372;SDS011;3219;51.362;7.074;2022-09-09T04:22:55;9.32;;;2.50;;
6372;SDS011;3219;51.362;7.074;2022-09-09T04:25:22;5.03;;;1.73;;
6372;SDS011;3219;51.362;7.074;2022-09-09T04:27:52;7.93;;;2.50;;
6372;SDS011;3219;51.362;7.074;2022-09-09T04:30:20;10.80;;;1.80;;
6372;SDS011;3219;51.362;7.074;2022-09-09T04:32:48;4.35;;;1.98;;
6372;SDS011;3219;51.362;7.074;2022-09-09T04:35:15;11.85;;;2.33;;
6372;SDS011;3219;51.362;7.074;2022-09-09T04:37:43;6.22;;;2.17;;
6372;SDS011;3219;51.362;7.074;2022-09-09T04:40:10;5.43;;;1.85;;
6372;SDS011;3219;51.362;7.074;2022-09-09T04:42:37;6.35;;;2.15;;
6372;SDS011;3219;51.362;7.074;2022-09-09T04:45:09;8.70;;;2.40;;
6372;SDS011;3219;51.362;7.074;2022-09-09T04:47:38;10.63;;;2.88;;
6372;SDS011;3219;51.362;7.074;2022-09-09T04:50:07;9.32;;;2.55;;
6372;SDS011;3219;51.362;7.074;2022-09-09T04:52:35;6.18;;;2.47;;
6372;SDS011;3219;51.362;7.074;2022-09-09T04:55:02;6.38;;;2.20;;
6372;SDS011;3219;51.362;7.074;2022-09-09T04:57:30;15.07;;;2.40;;
6372;SDS011;3219;51.362;7.074;2022-09-09T04:59:58;8.88;;;2.33;;
6372;SDS011;3219;51.362;7.074;2022-09-09T05:02:25;8.75;;;2.45;;
6372;SDS011;3219;51.362;7.074;2022-09-09T05:04:52;11.45;;;2.17;;
6372;SDS011;3219;51.362;7.074;2022-09-09T05:07:21;8.93;;;1.92;;
6372;SDS011;3219;51.362;7.074;2022-09-09T05:09:48;7.93;;;2.60;;
6372;SDS011;3219;51.362;7.074;2022-09-09T05:12:15;7.90;;;2.72;;
6372;SDS011;3219;51.362;7.074;2022-09-09T05:14:42;32.47;;;3.70;;
6372;SDS011;3219;51.362;7.074;2022-09-09T05:17:09;7.32;;;2.40;;
6372;SDS011;3219;51.362;7.074;2022-09-09T05:19:37;8.98;;;2.63;;
6372;SDS011;3219;51.362;7.074;2022-09-09T05:22:04;5.68;;;2.05;;
6372;SDS011;3219;51.362;7.074;2022-09-09T05:24:33;14.15;;;2.88;;
6372;SDS011;3219;51.362;7.074;2022-09-09T05:27:01;12.52;;;2.97;;
6372;SDS011;3219;51.362;7.074;2022-09-09T05:29:30;10.88;;;2.50;;
6372;SDS011;3219;51.362;7.074;2022-09-09T05:31:58;8.25;;;2.15;;
6372;SDS011;3219;51.362;7.074;2022-09-09T05:34:25;12.10;;;2.97;;
6372;SDS011;3219;51.362;7.074;2022-09-09T05:36:53;8.63;;;2.53;;
6372;SDS011;3219;51.362;7.074;2022-09-09T05:39:20;8.82;;;2.63;;
6372;SDS011;3219;51.362;7.074;2022-09-09T05:41:48;9.05;;;2.75;;
6372;SDS011;3219;51.362;7.074;2022-09-09T05:44:16;7.68;;;2.50;;
6372;SDS011;3219;51.362;7.074;2022-09-09T05:46:44;7.18;;;2.15;;
6372;SDS011;3219;51.362;7.074;2022-09-09T05:49:11;13.20;;;3.00;;
6372;SDS011;3219;51.362;7.074;2022-09-09T05:51:40;5.75;;;2.20;;
6372;SDS011;3219;51.362;7.074;2022-09-09T05:54:09;9.90;;;2.40;;
6372;SDS011;3219;51.362;7.074;2022-09-09T05:56:38;9.88;;;2.22;;
6372;SDS011;3219;51.362;7.074;2022-09-09T05:59:07;15.00;;;2.60;;
6372;SDS011;3219;51.362;7.074;2022-09-09T06:01:35;7.13;;;2.20;;
6372;SDS011;3219;51.362;7.074;2022-09-09T06:04:08;20.27;;;2.72;;
6372;SDS011;3219;51.362;7.074;2022-09-09T06:06:35;9.60;;;3.10;;
6372;SDS011;3219;51.362;7.074;2022-09-09T06:09:04;8.43;;;2.83;;
6372;SDS011;3219;51.362;7.074;2022-09-09T06:11:34;6.15;;;1.83;;
6372;SDS011;3219;51.362;7.074;2022-09-09T06:14:02;7.88;;;2.10;;
6372;SDS011;3219;51.362;7.074;2022-09-09T06:16:31;5.18;;;2.08;;
6372;SDS011;3219;51.362;7.074;2022-09-09T06:18:58;10.15;;;2.00;;
6372;SDS011;3219;51.362;7.074;2022-09-09T06:21:26;5.88;;;1.73;;
6372;SDS011;3219;51.362;7.074;2022-09-09T06:23:55;6.95;;;1.98;;
6372;SDS011;3219;51.362;7.074;2022-09-09T06:26:22;5.63;;;1.52;;
6372;SDS011;3219;51.362;7.074;2022-09-09T06:28:51;7.47;;;1.95;;
6372;SDS011;3219;51.362;7.074;2022-09-09T06:31:19;4.53;;;1.73;;
6372;SDS011;3219;51.362;7.074;2022-09-09T06:33:48;6.15;;;2.35;;
6372;SDS011;3219;51.362;7.074;2022-09-09T06:36:16;4.63;;;1.75;;
6372;SDS011;3219;51.362;7.074;2022-09-09T06:38:44;7.68;;;2.00;;
6372;SDS011;3219;51.362;7.074;2022-09-09T06:41:12;9.93;;;2.40;;
6372;SDS011;3219;51.362;7.074;2022-09-09T06:43:39;5.85;;;1.70;;
6372;SDS011;3219;51.362;7.074;2022-09-09T06:46:08;4.25;;;1.67;;
6372;SDS011;3219;51.362;7.074;2022-09-09T06:48:35;5.70;;;2.15;;
6372;SDS011;3219;51.362;7.074;2022-09-09T06:51:05;7.25;;;1.77;;
6372;SDS011;3219;51.362;7.074;2022-09-09T06:53:32;5.03;;;1.70;;
6372;SDS011;3219;51.362;7.074;2022-09-09T06:56:00;4.20;;;1.50;;
6372;SDS011;3219;51.362;7.074;2022-09-09T06:58:27;4.45;;;1.45;;
6372;SDS011;3219;51.362;7.074;2022-09-09T07:01:01;7.70;;;1.67;;
6372;SDS011;3219;51.362;7.074;2022-09-09T07:03:28;4.28;;;1.50;;
6372;SDS011;3219;51.362;7.074;2022-09-09T07:05:55;4.95;;;1.65;;
6372;SDS011;3219;51.362;7.074;2022-09-09T07:08:23;6.75;;;1.35;;
6372;SDS011;3219;51.362;7.074;2022-09-09T07:10:51;7.13;;;1.65;;
6372;SDS011;3219;51.362;7.074;2022-09-09T07:13:19;7.78;;;2.05;;
6372;SDS011;3219;51.362;7.074;2022-09-09T07:15:46;5.97;;;1.60;;
6372;SDS011;3219;51.362;7.074;2022-09-09T07:18:13;3.08;;;1.23;;
6372;SDS011;3219;51.362;7.074;2022-09-09T07:20:40;6.43;;;1.50;;
6372;SDS011;3219;51.362;7.074;2022-09-09T07:23:07;4.60;;;1.50;;
6372;SDS011;3219;51.362;7.074;2022-09-09T07:25:35;7.35;;;1.55;;
6372;SDS011;3219;51.362;7.074;2022-09-09T07:28:02;5.57;;;1.80;;
6372;SDS011;3219;51.362;7.074;2022-09-09T07:30:30;4.93;;;1.48;;
6372;SDS011;3219;51.362;7.074;2022-09-09T07:32:57;9.18;;;2.00;;
6372;SDS011;3219;51.362;7.074;2022-09-09T07:35:24;6.05;;;1.88;;
6372;SDS011;3219;51.362;7.074;2022-09-09T07:37:52;5.65;;;1.50;;
6372;SDS011;3219;51.362;7.074;2022-09-09T07:40:19;6.13;;;1.40;;
6372;SDS011;3219;51.362;7.074;2022-09-09T07:42:48;3.88;;;1.20;;
6372;SDS011;3219;51.362;7.074;2022-09-09T07:45:15;5.47;;;1.27;;
6372;SDS011;3219;51.362;7.074;2022-09-09T07:47:42;5.68;;;1.80;;
6372;SDS011;3219;51.362;7.074;2022-09-09T07:50:09;6.70;;;1.60;;
6372;SDS011;3219;51.362;7.074;2022-09-09T07:52:36;6.80;;;1.50;;
6372;SDS011;3219;51.362;7.074;2022-09-09T07:55:04;8.57;;;1.50;;
6372;SDS011;3219;51.362;7.074;2022-09-09T07:57:31;6.40;;;1.65;;
6372;SDS011;3219;51.362;7.074;2022-09-09T08:00:00;5.15;;;1.52;;
6372;SDS011;3219;51.362;7.074;2022-09-09T08:02:27;7.40;;;1.80;;
6372;SDS011;3219;51.362;7.074;2022-09-09T08:04:54;4.90;;;1.50;;
6372;SDS011;3219;51.362;7.074;2022-09-09T08:07:21;8.27;;;2.28;;
6372;SDS011;3219;51.362;7.074;2022-09-09T08:09:49;5.35;;;1.65;;
6372;SDS011;3219;51.362;7.074;2022-09-09T08:12:16;5.80;;;1.80;;
6372;SDS011;3219;51.362;7.074;2022-09-09T08:14:43;7.07;;;1.85;;
6372;SDS011;3219;51.362;7.074;2022-09-09T08:17:12;9.13;;;1.65;;
6372;SDS011;3219;51.362;7.074;2022-09-09T08:19:39;4.78;;;1.80;;
6372;SDS011;3219;51.362;7.074;2022-09-09T08:22:06;5.68;;;1.50;;
6372;SDS011;3219;51.362;7.074;2022-09-09T08:24:33;8.10;;;2.20;;
6372;SDS011;3219;51.362;7.074;2022-09-09T08:27:01;7.65;;;1.63;;
6372;SDS011;3219;51.362;7.074;2022-09-09T08:29:28;5.70;;;1.83;;
6372;SDS011;3219;51.362;7.074;2022-09-09T08:31:56;3.97;;;1.48;;
6372;SDS011;3219;51.362;7.074;2022-09-09T08:34:25;5.40;;;1.50;;
6372;SDS011;3219;51.362;7.074;2022-09-09T08:36:53;4.78;;;1.52;;
6372;SDS011;3219;51.362;7.074;2022-09-09T08:39:20;9.10;;;2.22;;
6372;SDS011;3219;51.362;7.074;2022-09-09T08:42:08;8.90;;;1.88;;
6372;SDS011;3219;51.362;7.074;2022-09-09T08:44:42;8.15;;;1.92;;
6372;SDS011;3219;51.362;7.074;2022-09-09T08:47:15;7.50;;;1.67;;
6372;SDS011;3219;51.362;7.074;2022-09-09T08:50:00;5.47;;;1.50;;
6372;SDS011;3219;51.362;7.074;2022-09-09T08:52:29;5.72;;;1.73;;
6372;SDS011;3219;51.362;7.074;2022-09-09T08:54:58;6.68;;;1.83;;
6372;SDS011;3219;51.362;7.074;2022-09-09T08:57:28;7.25;;;1.67;;
6372;SDS011;3219;51.362;7.074;2022-09-09T08:59:57;7.07;;;1.60;;
6372;SDS011;3219;51.362;7.074;2022-09-09T09:02:25;6.75;;;1.80;;
6372;SDS011;3219;51.362;7.074;2022-09-09T09:05:01;7.72;;;1.98;;
6372;SDS011;3219;51.362;7.074;2022-09-09T09:07:33;9.35;;;1.95;;
6372;SDS011;3219;51.362;7.074;2022-09-09T09:10:05;5.03;;;1.50;;
6372;SDS011;3219;51.362;7.074;2022-09-09T09:12:37;5.50;;;1.50;;
6372;SDS011;3219;51.362;7.074;2022-09-09T09:15:08;8.00;;;1.83;;
6372;SDS011;3219;51.362;7.074;2022-09-09T09:17:38;7.32;;;2.10;;
6372;SDS011;3219;51.362;7.074;2022-09-09T09:20:10;6.40;;;1.42;;
6372;SDS011;3219;51.362;7.074;2022-09-09T09:22:39;5.32;;;1.50;;
6372;SDS011;3219;51.362;7.074;2022-09-09T09:25:10;4.38;;;1.45;;
6372;SDS011;3219;51.362;7.074;2022-09-09T09:27:44;7.13;;;1.85;;
6372;SDS011;3219;51.362;7.074;2022-09-09T09:30:14;5.75;;;1.83;;
6372;SDS011;3219;51.362;7.074;2022-09-09T09:32:43;5.50;;;1.85;;
6372;SDS011;3219;51.362;7.074;2022-09-09T09:35:12;6.95;;;1.65;;
6372;SDS011;3219;51.362;7.074;2022-09-09T09:37:40;5.40;;;1.52;;
6372;SDS011;3219;51.362;7.074;2022-09-09T09:40:09;5.25;;;1.42;;
6372;SDS011;3219;51.362;7.074;2022-09-09T09:42:36;4.90;;;1.85;;
6372;SDS011;3219;51.362;7.074;2022-09-09T09:45:07;7.05;;;1.70;;
6372;SDS011;3219;51.362;7.074;2022-09-09T09:47:35;8.23;;;1.77;;
6372;SDS011;3219;51.362;7.074;2022-09-09T09:50:02;6.10;;;1.30;;
6372;SDS011;3219;51.362;7.074;2022-09-09T09:52:31;6.57;;;1.88;;
6372;SDS011;3219;51.362;7.074;2022-09-09T09:54:59;3.70;;;1.40;;
6372;SDS011;3219;51.362;7.074;2022-09-09T09:57:30;4.63;;;1.50;;
6372;SDS011;3219;51.362;7.074;2022-09-09T10:00:02;9.02;;;1.70;;
6372;SDS011;3219;51.362;7.074;2022-09-09T10:02:36;6.53;;;1.58;;
6372;SDS011;3219;51.362;7.074;2022-09-09T10:05:05;2.95;;;1.33;;
6372;SDS011;3219;51.362;7.074;2022-09-09T10:07:34;4.82;;;1.27;;
6372;SDS011;3219;51.362;7.074;2022-09-09T10:10:02;7.47;;;2.22;;
6372;SDS011;3219;51.362;7.074;2022-09-09T10:12:33;5.95;;;1.33;;
6372;SDS011;3219;51.362;7.074;2022-09-09T10:15:05;7.40;;;1.65;;
6372;SDS011;3219;51.362;7.074;2022-09-09T10:17:35;5.20;;;1.80;;
6372;SDS011;3219;51.362;7.074;2022-09-09T10:20:17;4.18;;;1.40;;
6372;SDS011;3219;51.362;7.074;2022-09-09T10:22:49;5.75;;;1.52;;
6372;SDS011;3219;51.362;7.074;2022-09-09T10:25:22;7.07;;;1.05;;
6372;SDS011;3219;51.362;7.074;2022-09-09T10:28:08;4.65;;;1.45;;
6372;SDS011;3219;51.362;7.074;2022-09-09T10:30:40;10.13;;;1.50;;
6372;SDS011;3219;51.362;7.074;2022-09-09T10:33:15;7.80;;;1.60;;
6372;SDS011;3219;51.362;7.074;2022-09-09T10:35:49;5.10;;;0.93;;
6372;SDS011;3219;51.362;7.074;2022-09-09T10:38:20;4.73;;;1.20;;
6372;SDS011;3219;51.362;7.074;2022-09-09T10:43:53;6.93;;;1.45;;
6372;SDS011;3219;51.362;7.074;2022-09-09T10:46:27;3.65;;;1.75;;
6372;SDS011;3219;51.362;7.074;2022-09-09T10:49:02;6.60;;;1.05;;
6372;SDS011;3219;51.362;7.074;2022-09-09T10:51:33;2.22;;;0.90;;
6372;SDS011;3219;51.362;7.074;2022-09-09T10:54:10;3.00;;;1.00;;
6372;SDS011;3219;51.362;7.074;2022-09-09T10:56:39;3.35;;;1.17;;
6372;SDS011;3219;51.362;7.074;2022-09-09T10:59:09;2.85;;;1.10;;
6372;SDS011;3219;51.362;7.074;2022-09-09T11:01:40;5.80;;;1.73;;
6372;SDS011;3219;51.362;7.074;2022-09-09T11:04:10;3.22;;;1.02;;
6372;SDS011;3219;51.362;7.074;2022-09-09T11:06:39;3.53;;;1.08;;
6372;SDS011;3219;51.362;7.074;2022-09-09T11:09:09;4.15;;;1.13;;
6372;SDS011;3219;51.362;7.074;2022-09-09T11:11:44;3.88;;;1.02;;
6372;SDS011;3219;51.362;7.074;2022-09-09T11:14:14;4.50;;;1.05;;
6372;SDS011;3219;51.362;7.074;2022-09-09T11:16:42;4.45;;;0.70;;
6372;SDS011;3219;51.362;7.074;2022-09-09T11:19:14;2.25;;;0.85;;
6372;SDS011;3219;51.362;7.074;2022-09-09T11:21:44;4.63;;;1.40;;
6372;SDS011;3219;51.362;7.074;2022-09-09T11:24:14;3.40;;;1.05;;
6372;SDS011;3219;51.362;7.074;2022-09-09T11:26:43;5.25;;;1.30;;
6372;SDS011;3219;51.362;7.074;2022-09-09T11:29:25;6.38;;;1.27;;
6372;SDS011;3219;51.362;7.074;2022-09-09T11:32:00;5.07;;;1.20;;
6372;SDS011;3219;51.362;7.074;2022-09-09T11:34:34;5.50;;;1.13;;
6372;SDS011;3219;51.362;7.074;2022-09-09T11:39:51;5.13;;;1.08;;
6372;SDS011;3219;51.362;7.074;2022-09-09T11:42:22;3.25;;;1.25;;
6372;SDS011;3219;51.362;7.074;2022-09-09T11:44:49;2.17;;;1.00;;
6372;SDS011;3219;51.362;7.074;2022-09-09T11:47:22;3.88;;;1.15;;
6372;SDS011;3219;51.362;7.074;2022-09-09T11:49:54;4.13;;;1.20;;
6372;SDS011;3219;51.362;7.074;2022-09-09T11:52:21;4.78;;;0.98;;
6372;SDS011;3219;51.362;7.074;2022-09-09T11:54:52;6.13;;;1.20;;
6372;SDS011;3219;51.362;7.074;2022-09-09T11:57:25;4.90;;;1.33;;
6372;SDS011;3219;51.362;7.074;2022-09-09T11:59:53;3.30;;;1.30;;
6372;SDS011;3219;51.362;7.074;2022-09-09T12:02:22;3.83;;;1.42;;
6372;SDS011;3219;51.362;7.074;2022-09-09T12:04:54;5.38;;;1.20;;
6372;SDS011;3219;51.362;7.074;2022-09-09T12:07:23;4.10;;;1.10;;
6372;SDS011;3219;51.362;7.074;2022-09-09T12:09:54;3.45;;;1.42;;
6372;SDS011;3219;51.362;7.074;2022-09-09T12:12:24;2.90;;;1.10;;
6372;SDS011;3219;51.362;7.074;2022-09-09T12:14:56;4.03;;;1.00;;
6372;SDS011;3219;51.362;7.074;2022-09-09T12:17:25;3.88;;;1.40;;
6372;SDS011;3219;51.362;7.074;2022-09-09T12:19:59;3.47;;;1.30;;
6372;SDS011;3219;51.362;7.074;2022-09-09T12:22:32;3.55;;;1.40;;
6372;SDS011;3219;51.362;7.074;2022-09-09T12:25:07;3.83;;;1.45;;
6372;SDS011;3219;51.362;7.074;2022-09-09T12:27:40;5.35;;;1.50;;
6372;SDS011;3219;51.362;7.074;2022-09-09T12:30:09;3.58;;;1.10;;
6372;SDS011;3219;51.362;7.074;2022-09-09T12:32:37;3.13;;;0.90;;
6372;SDS011;3219;51.362;7.074;2022-09-09T12:35:08;2.55;;;1.27;;
6372;SDS011;3219;51.362;7.074;2022-09-09T12:37:37;2.80;;;1.13;;
6372;SDS011;3219;51.362;7.074;2022-09-09T12:40:15;3.78;;;1.33;;
6372;SDS011;3219;51.362;7.074;2022-09-09T12:42:45;3.50;;;1.45;;
6372;SDS011;3219;51.362;7.074;2022-09-09T12:45:15;5.75;;;1.50;;
6372;SDS011;3219;51.362;7.074;2022-09-09T12:47:44;13.70;;;2.13;;
6372;SDS011;3219;51.362;7.074;2022-09-09T12:50:16;5.97;;;1.38;;
6372;SDS011;3219;51.362;7.074;2022-09-09T12:52:43;4.55;;;1.42;;
6372;SDS011;3219;51.362;7.074;2022-09-09T12:55:16;5.93;;;1.60;;
6372;SDS011;3219;51.362;7.074;2022-09-09T12:57:44;5.78;;;2.08;;
6372;SDS011;3219;51.362;7.074;2022-09-09T13:00:13;4.55;;;1.25;;
6372;SDS011;3219;51.362;7.074;2022-09-09T13:02:51;4.95;;;1.15;;
6372;SDS011;3219;51.362;7.074;2022-09-09T13:05:20;5.55;;;1.15;;
6372;SDS011;3219;51.362;7.074;2022-09-09T13:07:48;3.30;;;1.30;;
6372;SDS011;3219;51.362;7.074;2022-09-09T13:10:19;5.15;;;1.20;;
6372;SDS011;3219;51.362;7.074;2022-09-09T13:12:47;4.18;;;0.90;;
6372;SDS011;3219;51.362;7.074;2022-09-09T13:15:23;6.90;;;1.33;;
6372;SDS011;3219;51.362;7.074;2022-09-09T13:17:55;2.22;;;1.05;;
6372;SDS011;3219;51.362;7.074;2022-09-09T13:20:23;2.70;;;1.30;;
6372;SDS011;3219;51.362;7.074;2022-09-09T13:22:50;4.63;;;1.67;;
6372;SDS011;3219;51.362;7.074;2022-09-09T13:25:21;4.50;;;1.63;;
6372;SDS011;3219;51.362;7.074;2022-09-09T13:30:20;4.40;;;1.48;;
6372;SDS011;3219;51.362;7.074;2022-09-09T13:32:59;8.65;;;2.78;;
6372;SDS011;3219;51.362;7.074;2022-09-09T13:35:27;7.03;;;2.55;;
6372;SDS011;3219;51.362;7.074;2022-09-09T13:37:54;9.75;;;2.28;;
6372;SDS011;3219;51.362;7.074;2022-09-09T13:40:22;8.55;;;2.22;;
6372;SDS011;3219;51.362;7.074;2022-09-09T13:42:51;8.13;;;1.88;;
6372;SDS011;3219;51.362;7.074;2022-09-09T13:45:19;5.85;;;1.25;;
6372;SDS011;3219;51.362;7.074;2022-09-09T13:47:47;3.90;;;1.25;;
6372;SDS011;3219;51.362;7.074;2022-09-09T13:50:18;4.95;;;1.23;;
6372;SDS011;3219;51.362;7.074;2022-09-09T13:52:45;5.07;;;1.15;;
6372;SDS011;3219;51.362;7.074;2022-09-09T13:55:14;3.88;;;1.27;;
6372;SDS011;3219;51.362;7.074;2022-09-09T13:57:51;3.78;;;1.27;;
6372;SDS011;3219;51.362;7.074;2022-09-09T14:00:18;3.20;;;1.20;;
6372;SDS011;3219;51.362;7.074;2022-09-09T14:02:45;5.00;;;1.30;;
6372;SDS011;3219;51.362;7.074;2022-09-09T14:05:13;3.70;;;1.20;;
6372;SDS011;3219;51.362;7.074;2022-09-09T14:07:41;3.83;;;1.10;;
6372;SDS011;3219;51.362;7.074;2022-09-09T14:10:08;4.22;;;1.30;;
6372;SDS011;3219;51.362;7.074;2022-09-09T14:12:36;2.90;;;1.27;;
6372;SDS011;3219;51.362;7.074;2022-09-09T14:15:05;6.18;;;1.38;;
6372;SDS011;3219;51.362;7.074;2022-09-09T14:17:33;3.22;;;1.27;;
6372;SDS011;3219;51.362;7.074;2022-09-09T14:20:01;5.25;;;1.50;;
6372;SDS011;3219;51.362;7.074;2022-09-09T14:22:28;7.28;;;1.55;;
6372;SDS011;3219;51.362;7.074;2022-09-09T14:24:55;4.13;;;1.50;;
6372;SDS011;3219;51.362;7.074;2022-09-09T14:27:22;4.03;;;1.52;;
6372;SDS011;3219;51.362;7.074;2022-09-09T14:29:50;4.18;;;1.40;;
6372;SDS011;3219;51.362;7.074;2022-09-09T14:32:19;9.73;;;1.25;;
6372;SDS011;3219;51.362;7.074;2022-09-09T14:34:46;5.07;;;1.27;;
6372;SDS011;3219;51.362;7.074;2022-09-09T14:37:14;5.47;;;1.63;;
6372;SDS011;3219;51.362;7.074;2022-09-09T14:39:42;6.28;;;1.58;;
6372;SDS011;3219;51.362;7.074;2022-09-09T14:42:09;5.45;;;1.63;;
6372;SDS011;3219;51.362;7.074;2022-09-09T14:44:36;5.13;;;1.60;;
6372;SDS011;3219;51.362;7.074;2022-09-09T14:47:05;5.55;;;2.17;;
6372;SDS011;3219;51.362;7.074;2022-09-09T14:49:34;5.65;;;1.63;;
6372;SDS011;3219;51.362;7.074;2022-09-09T14:52:02;4.72;;;1.50;;
6372;SDS011;3219;51.362;7.074;2022-09-09T14:54:29;2.40;;;1.10;;
6372;SDS011;3219;51.362;7.074;2022-09-09T14:56:56;3.53;;;1.40;;
6372;SDS011;3219;51.362;7.074;2022-09-09T14:59:23;4.75;;;1.55;;
6372;SDS011;3219;51.362;7.074;2022-09-09T15:01:49;5.22;;;1.75;;
6372;SDS011;3219;51.362;7.074;2022-09-09T15:04:16;4.85;;;1.50;;
6372;SDS011;3219;51.362;7.074;2022-09-09T15:06:44;2.63;;;0.80;;
6372;SDS011;3219;51.362;7.074;2022-09-09T15:09:13;1.63;;;0.50;;
6372;SDS011;3219;51.362;7.074;2022-09-09T15:11:40;1.83;;;0.73;;
6372;SDS011;3219;51.362;7.074;2022-09-09T15:14:08;1.15;;;0.50;;
6372;SDS011;3219;51.362;7.074;2022-09-09T15:16:37;1.00;;;0.40;;
6372;SDS011;3219;51.362;7.074;2022-09-09T15:19:05;1.13;;;0.40;;
6372;SDS011;3219;51.362;7.074;2022-09-09T15:21:32;1.42;;;0.50;;
6372;SDS011;3219;51.362;7.074;2022-09-09T15:24:02;0.43;;;0.40;;
6372;SDS011;3219;51.362;7.074;2022-09-09T15:26:30;1.67;;;0.40;;
6372;SDS011;3219;51.362;7.074;2022-09-09T15:28:57;2.78;;;0.45;;
6372;SDS011;3219;51.362;7.074;2022-09-09T15:31:26;2.85;;;0.50;;
6372;SDS011;3219;51.362;7.074;2022-09-09T15:33:55;3.47;;;0.73;;
6372;SDS011;3219;51.362;7.074;2022-09-09T15:36:26;2.58;;;1.08;;